createdAt,value
2022-11-02T00:00:51.645Z,979.64
2022-11-02T00:01:51.713Z,979.63
2022-11-02T00:02:51.661Z,979.63
2022-11-02T00:03:51.590Z,979.58
2022-11-02T00:04:51.582Z,979.61
2022-11-02T00:05:51.568Z,979.58
2022-11-02T00:06:51.565Z,979.58
2022-11-02T00:07:51.542Z,979.61
2022-11-02T00:08:51.533Z,979.64
2022-11-02T00:09:51.520Z,979.62
2022-11-02T00:10:51.527Z,979.61
2022-11-02T00:11:51.495Z,979.61
2022-11-02T00:12:51.490Z,979.67
2022-11-02T00:13:51.473Z,979.64
2022-11-02T00:14:51.562Z,979.63
2022-11-02T00:15:51.446Z,979.64
2022-11-02T00:16:51.436Z,979.67
2022-11-02T00:17:51.515Z,979.65
2022-11-02T00:18:51.414Z,979.66
2022-11-02T00:19:51.399Z,979.62
2022-11-02T00:20:51.389Z,979.65
2022-11-02T00:21:51.376Z,979.63
2022-11-02T00:22:51.367Z,979.64
2022-11-02T00:23:51.352Z,979.61
2022-11-02T00:25:51.329Z,979.63
2022-11-02T00:26:51.333Z,979.59
2022-11-02T00:27:51.305Z,979.61
2022-11-02T00:28:51.293Z,979.63
2022-11-02T00:29:51.282Z,979.59
2022-11-02T00:30:51.268Z,979.62
2022-11-02T00:31:51.259Z,979.63
2022-11-02T00:32:51.244Z,979.63
2022-11-02T00:33:51.238Z,979.61
2022-11-02T00:34:51.221Z,979.61
2022-11-02T00:35:51.209Z,979.66
2022-11-02T00:36:55.334Z,979.66
2022-11-02T00:37:51.189Z,979.62
2022-11-02T00:38:51.173Z,979.65
2022-11-02T00:39:51.163Z,979.68
2022-11-02T00:40:51.154Z,979.67
2022-11-02T00:41:51.138Z,979.73
2022-11-02T00:42:51.143Z,979.69
2022-11-02T00:43:51.115Z,979.73
2022-11-02T00:44:51.102Z,979.68
2022-11-02T00:45:51.091Z,979.70
2022-11-02T00:46:51.077Z,979.74
2022-11-02T00:47:51.067Z,979.76
2022-11-02T00:48:51.054Z,979.75
2022-11-02T00:49:51.046Z,979.75
2022-11-02T00:50:51.032Z,979.84
2022-11-02T00:51:51.019Z,979.84
2022-11-02T00:52:51.006Z,979.87
2022-11-02T00:53:50.998Z,979.87
2022-11-02T00:54:50.982Z,979.86
2022-11-02T00:55:50.975Z,979.89
2022-11-02T00:56:51.049Z,979.91
2022-11-02T00:57:50.949Z,979.93
2022-11-02T00:58:50.954Z,979.95
2022-11-02T00:59:50.923Z,979.96
2022-11-02T01:00:50.911Z,979.98
2022-11-02T01:01:51.137Z,979.99
2022-11-02T01:02:51.082Z,980.02
2022-11-02T01:03:50.880Z,980.03
2022-11-02T01:04:50.863Z,980.04
2022-11-02T01:05:50.855Z,980.06
2022-11-02T01:06:50.840Z,980.06
2022-11-02T01:07:50.880Z,980.09
2022-11-02T01:08:50.819Z,980.11
2022-11-02T01:09:50.805Z,980.13
2022-11-02T01:10:50.802Z,980.14
2022-11-02T01:11:50.783Z,980.13
2022-11-02T01:12:50.772Z,980.18
2022-11-02T01:13:50.757Z,980.17
2022-11-02T01:14:50.770Z,980.18
2022-11-02T01:15:50.736Z,980.19
2022-11-02T01:16:50.732Z,980.19
2022-11-02T01:17:50.712Z,980.22
2022-11-02T01:18:50.703Z,980.18
2022-11-02T01:19:50.688Z,980.19
2022-11-02T01:20:50.677Z,980.14
2022-11-02T01:21:50.665Z,980.12
2022-11-02T01:22:50.659Z,980.09
2022-11-02T01:23:50.642Z,980.04
2022-11-02T01:24:50.630Z,980.09
2022-11-02T01:25:50.621Z,980.08
2022-11-02T01:26:50.607Z,980.10
2022-11-02T01:27:50.596Z,980.11
2022-11-02T01:28:50.584Z,980.10
2022-11-02T01:29:50.571Z,980.08
2022-11-02T01:30:50.578Z,980.06
2022-11-02T01:31:50.549Z,980.03
2022-11-02T01:32:50.540Z,980.00
2022-11-02T01:33:50.525Z,980.01
2022-11-02T01:34:50.519Z,980.01
2022-11-02T01:35:50.505Z,979.95
2022-11-02T01:36:50.491Z,979.93
2022-11-02T01:37:50.482Z,979.94
2022-11-02T01:38:50.469Z,979.91
2022-11-02T01:39:50.454Z,979.92
2022-11-02T01:40:50.445Z,979.90
2022-11-02T01:41:50.431Z,979.92
2022-11-02T01:42:50.422Z,979.92
2022-11-02T01:43:50.409Z,979.93
2022-11-02T01:44:50.402Z,979.93
2022-11-02T01:45:50.385Z,979.83
2022-11-02T01:46:50.393Z,979.81
2022-11-02T01:47:50.360Z,979.80
2022-11-02T01:48:50.350Z,979.84
2022-11-02T01:49:50.339Z,979.84
2022-11-02T01:50:50.329Z,979.87
2022-11-02T01:51:50.315Z,979.90
2022-11-02T01:52:50.306Z,979.93
2022-11-02T01:53:50.292Z,979.94
2022-11-02T01:54:50.281Z,979.92
2022-11-02T01:55:50.271Z,979.91
2022-11-02T01:56:50.262Z,979.92
2022-11-02T01:57:50.245Z,979.92
2022-11-02T01:58:50.236Z,979.93
2022-11-02T01:59:50.220Z,979.89
2022-11-02T02:00:50.211Z,979.89
2022-11-02T02:01:50.379Z,979.86
2022-11-02T02:02:50.257Z,979.88
2022-11-02T02:03:50.174Z,979.85
2022-11-02T02:04:50.165Z,979.90
2022-11-02T02:05:50.151Z,979.91
2022-11-02T02:06:50.145Z,979.92
2022-11-02T02:07:50.126Z,979.85
2022-11-02T02:08:50.118Z,979.86
2022-11-02T02:09:51.441Z,979.84
2022-11-02T02:10:50.094Z,979.86
2022-11-02T02:11:50.079Z,979.84
2022-11-02T02:12:50.072Z,979.83
2022-11-02T02:13:50.057Z,979.86
2022-11-02T02:14:50.047Z,979.89
2022-11-02T02:15:50.033Z,979.87
2022-11-02T02:16:50.038Z,979.81
2022-11-02T02:17:50.011Z,979.82
2022-11-02T02:18:50.021Z,979.84
2022-11-02T02:19:49.987Z,979.84
2022-11-02T02:20:49.978Z,979.89
2022-11-02T02:21:49.964Z,979.84
2022-11-02T02:22:49.958Z,979.83
2022-11-02T02:23:49.940Z,979.82
2022-11-02T02:24:49.930Z,979.80
2022-11-02T02:25:49.917Z,979.77
2022-11-02T02:26:49.907Z,979.79
2022-11-02T02:27:49.893Z,979.77
2022-11-02T02:28:49.884Z,979.79
2022-11-02T02:29:49.869Z,979.81
2022-11-02T02:30:49.861Z,979.80
2022-11-02T02:31:49.846Z,979.79
2022-11-02T02:32:49.838Z,979.79
2022-11-02T02:33:49.833Z,979.77
2022-11-02T02:34:49.832Z,979.75
2022-11-02T02:35:49.799Z,979.76
2022-11-02T02:36:49.804Z,979.75
2022-11-02T02:37:49.777Z,979.75
2022-11-02T02:38:49.765Z,979.73
2022-11-02T02:39:49.753Z,979.69
2022-11-02T02:40:49.743Z,979.67
2022-11-02T02:41:49.730Z,979.63
2022-11-02T02:42:49.736Z,979.61
2022-11-02T02:43:49.707Z,979.62
2022-11-02T02:44:49.697Z,979.63
2022-11-02T02:45:49.683Z,979.60
2022-11-02T02:46:53.605Z,979.57
2022-11-02T02:47:49.659Z,979.53
2022-11-02T02:48:49.651Z,979.52
2022-11-02T02:49:49.636Z,979.54
2022-11-02T02:50:49.644Z,979.55
2022-11-02T02:51:49.613Z,979.56
2022-11-02T02:52:49.604Z,979.62
2022-11-02T02:53:49.592Z,979.57
2022-11-02T02:54:49.583Z,979.57
2022-11-02T02:55:49.568Z,979.54
2022-11-02T02:56:49.558Z,979.55
2022-11-02T02:57:49.545Z,979.54
2022-11-02T02:58:49.535Z,979.56
2022-11-02T02:59:49.519Z,979.54
2022-11-02T03:00:49.511Z,979.59
2022-11-02T03:01:49.643Z,979.57
2022-11-02T03:02:49.488Z,979.57
2022-11-02T03:03:49.474Z,979.57
2022-11-02T03:04:49.463Z,979.62
2022-11-02T03:05:49.451Z,979.58
2022-11-02T03:06:49.461Z,979.57
2022-11-02T03:07:49.427Z,979.60
2022-11-02T03:08:49.420Z,979.57
2022-11-02T03:09:49.405Z,979.59
2022-11-02T03:10:49.395Z,979.57
2022-11-02T03:11:49.381Z,979.58
2022-11-02T03:12:49.371Z,979.56
2022-11-02T03:13:49.359Z,979.57
2022-11-02T03:14:49.350Z,979.56
2022-11-02T03:15:49.334Z,979.54
2022-11-02T03:16:49.376Z,979.51
2022-11-02T03:17:49.317Z,979.56
2022-11-02T03:18:49.303Z,979.54
2022-11-02T03:19:49.302Z,979.55
2022-11-02T03:20:49.279Z,979.52
2022-11-02T03:21:49.268Z,979.53
2022-11-02T03:22:49.276Z,979.55
2022-11-02T03:23:49.241Z,979.59
2022-11-02T03:24:49.231Z,979.59
2022-11-02T03:25:49.221Z,979.58
2022-11-02T03:26:49.211Z,979.61
2022-11-02T03:27:49.196Z,979.60
2022-11-02T03:28:49.186Z,979.57
2022-11-02T03:29:49.173Z,979.59
2022-11-02T03:30:49.163Z,979.58
2022-11-02T03:31:49.250Z,979.60
2022-11-02T03:32:49.142Z,979.67
2022-11-02T03:33:49.126Z,979.62
2022-11-02T03:34:49.118Z,979.61
2022-11-02T03:35:49.103Z,979.63
2022-11-02T03:36:49.098Z,979.61
2022-11-02T03:37:49.079Z,979.62
2022-11-02T03:38:49.090Z,979.64
2022-11-02T03:39:49.056Z,979.71
2022-11-02T03:40:49.047Z,979.71
2022-11-02T03:41:49.032Z,979.72
2022-11-02T03:42:49.039Z,979.74
2022-11-02T03:43:49.010Z,979.69
2022-11-02T03:44:49.001Z,979.74
2022-11-02T03:45:48.987Z,979.75
2022-11-02T03:46:48.977Z,979.76
2022-11-02T03:47:48.963Z,979.77
2022-11-02T03:48:48.952Z,979.76
2022-11-02T03:49:49.041Z,979.79
2022-11-02T03:50:48.931Z,979.75
2022-11-02T03:51:48.918Z,979.73
2022-11-02T03:52:48.907Z,979.77
2022-11-02T03:53:48.895Z,979.78
2022-11-02T03:54:48.906Z,979.81
2022-11-02T03:55:48.886Z,979.87
2022-11-02T03:56:48.862Z,979.91
2022-11-02T03:57:48.846Z,979.95
2022-11-02T03:58:48.841Z,979.89
2022-11-02T03:59:48.823Z,979.93
2022-11-02T04:00:48.813Z,979.98
2022-11-02T04:01:48.948Z,980.02
2022-11-02T04:02:48.811Z,980.04
2022-11-02T04:03:48.845Z,980.04
2022-11-02T04:04:48.767Z,980.05
2022-11-02T04:05:48.753Z,980.03
2022-11-02T04:06:48.744Z,979.99
2022-11-02T04:07:49.956Z,979.95
2022-11-02T04:08:48.721Z,979.97
2022-11-02T04:09:48.707Z,979.95
2022-11-02T04:10:48.715Z,979.96
2022-11-02T04:11:48.684Z,979.94
2022-11-02T04:12:48.674Z,979.93
2022-11-02T04:13:48.661Z,979.93
2022-11-02T04:14:48.651Z,979.88
2022-11-02T04:15:48.637Z,979.96
2022-11-02T04:16:48.631Z,979.95
2022-11-02T04:17:48.613Z,980.00
2022-11-02T04:18:48.605Z,979.98
2022-11-02T04:19:49.933Z,979.98
2022-11-02T04:20:48.581Z,980.01
2022-11-02T04:21:48.568Z,980.01
2022-11-02T04:22:48.558Z,980.01
2022-11-02T04:23:48.545Z,980.08
2022-11-02T04:24:48.535Z,980.08
2022-11-02T04:25:48.521Z,980.12
2022-11-02T04:26:48.532Z,980.09
2022-11-02T04:27:48.498Z,980.10
2022-11-02T04:28:48.488Z,980.08
2022-11-02T04:29:48.486Z,980.08
2022-11-02T04:30:48.466Z,980.04
2022-11-02T04:31:48.466Z,980.07
2022-11-02T04:32:48.447Z,980.05
2022-11-02T04:33:48.429Z,980.05
2022-11-02T04:34:48.420Z,980.08
2022-11-02T04:35:48.404Z,980.15
2022-11-02T04:36:48.398Z,980.16
2022-11-02T04:37:48.382Z,980.13
2022-11-02T04:38:48.372Z,980.13
2022-11-02T04:39:48.361Z,980.13
2022-11-02T04:40:48.349Z,980.18
2022-11-02T04:41:48.337Z,980.14
2022-11-02T04:42:48.346Z,980.13
2022-11-02T04:43:48.323Z,980.13
2022-11-02T04:44:48.304Z,980.16
2022-11-02T04:45:48.290Z,980.12
2022-11-02T04:46:48.281Z,980.15
2022-11-02T04:47:48.266Z,980.13
2022-11-02T04:48:48.257Z,980.11
2022-11-02T04:49:48.243Z,980.12
2022-11-02T04:50:48.235Z,980.14
2022-11-02T04:51:49.907Z,980.10
2022-11-02T04:52:48.214Z,980.13
2022-11-02T04:53:48.196Z,980.17
2022-11-02T04:54:48.189Z,980.16
2022-11-02T04:55:48.176Z,980.18
2022-11-02T04:56:48.164Z,980.22
2022-11-02T04:57:48.153Z,980.18
2022-11-02T04:58:48.164Z,980.21
2022-11-02T04:59:48.129Z,980.22
2022-11-02T05:00:48.120Z,980.26
2022-11-02T05:01:48.218Z,980.25
2022-11-02T05:02:48.221Z,980.24
2022-11-02T05:03:48.084Z,980.16
2022-11-02T05:04:48.074Z,980.21
2022-11-02T05:05:48.060Z,980.17
2022-11-02T05:06:48.051Z,980.13
2022-11-02T05:07:48.037Z,980.16
2022-11-02T05:08:48.027Z,980.15
2022-11-02T05:09:48.014Z,980.16
2022-11-02T05:10:48.005Z,980.21
2022-11-02T05:11:47.991Z,980.23
2022-11-02T05:12:47.981Z,980.22
2022-11-02T05:13:47.971Z,980.22
2022-11-02T05:14:47.978Z,980.27
2022-11-02T05:15:47.943Z,980.26
2022-11-02T05:16:47.935Z,980.26
2022-11-02T05:17:47.920Z,980.23
2022-11-02T05:18:47.911Z,980.31
2022-11-02T05:19:47.897Z,980.28
2022-11-02T05:20:47.888Z,980.29
2022-11-02T05:21:47.874Z,980.32
2022-11-02T05:22:47.881Z,980.25
2022-11-02T05:23:47.855Z,980.28
2022-11-02T05:24:47.838Z,980.27
2022-11-02T05:25:47.830Z,980.25
2022-11-02T05:26:51.324Z,980.26
2022-11-02T05:27:47.806Z,980.27
2022-11-02T05:28:47.792Z,980.28
2022-11-02T05:29:47.783Z,980.27
2022-11-02T05:30:47.788Z,980.30
2022-11-02T05:31:47.759Z,980.27
2022-11-02T05:32:47.746Z,980.28
2022-11-02T05:33:47.738Z,980.25
2022-11-02T05:34:47.724Z,980.24
2022-11-02T05:35:47.714Z,980.23
2022-11-02T05:36:47.701Z,980.31
2022-11-02T05:37:47.690Z,980.29
2022-11-02T05:38:47.679Z,980.30
2022-11-02T05:39:49.590Z,980.33
2022-11-02T05:40:47.655Z,980.32
2022-11-02T05:41:47.644Z,980.32
2022-11-02T05:42:47.631Z,980.35
2022-11-02T05:43:47.622Z,980.37
2022-11-02T05:44:47.607Z,980.35
2022-11-02T05:45:47.598Z,980.38
2022-11-02T05:46:47.601Z,980.36
2022-11-02T05:47:47.574Z,980.41
2022-11-02T05:48:47.562Z,980.40
2022-11-02T05:49:47.552Z,980.40
2022-11-02T05:50:47.540Z,980.45
2022-11-02T05:51:47.528Z,980.47
2022-11-02T05:52:47.515Z,980.49
2022-11-02T05:53:47.507Z,980.48
2022-11-02T05:54:47.493Z,980.50
2022-11-02T05:55:47.482Z,980.44
2022-11-02T05:56:47.470Z,980.47
2022-11-02T05:57:47.460Z,980.48
2022-11-02T05:58:47.526Z,980.50
2022-11-02T05:59:49.393Z,980.49
2022-11-02T06:00:47.423Z,980.51
2022-11-02T06:01:47.434Z,980.52
2022-11-02T06:02:47.419Z,980.52
2022-11-02T06:03:52.199Z,980.53
2022-11-02T06:04:47.423Z,980.56
2022-11-02T06:05:47.471Z,980.57
2022-11-02T06:06:47.356Z,980.57
2022-11-02T06:07:47.346Z,980.55
2022-11-02T06:08:47.332Z,980.56
2022-11-02T06:09:47.324Z,980.55
2022-11-02T06:10:47.309Z,980.58
2022-11-02T06:11:47.300Z,980.59
2022-11-02T06:12:47.286Z,980.60
2022-11-02T06:13:47.278Z,980.59
2022-11-02T06:14:47.264Z,980.61
2022-11-02T06:15:47.256Z,980.66
2022-11-02T06:16:47.241Z,980.67
2022-11-02T06:17:47.232Z,980.69
2022-11-02T06:18:47.253Z,980.69
2022-11-02T06:19:47.258Z,980.73
2022-11-02T06:20:47.197Z,980.76
2022-11-02T06:21:48.531Z,980.72
2022-11-02T06:22:47.173Z,980.79
2022-11-02T06:23:47.164Z,980.75
2022-11-02T06:24:47.150Z,980.79
2022-11-02T06:25:47.141Z,980.78
2022-11-02T06:26:47.128Z,980.80
2022-11-02T06:27:47.118Z,980.81
2022-11-02T06:28:47.106Z,980.84
2022-11-02T06:29:47.096Z,980.83
2022-11-02T06:30:47.084Z,980.84
2022-11-02T06:31:47.181Z,980.83
2022-11-02T06:32:47.061Z,980.88
2022-11-02T06:33:47.055Z,980.86
2022-11-02T06:34:47.055Z,980.84
2022-11-02T06:35:47.029Z,980.89
2022-11-02T06:36:47.015Z,980.90
2022-11-02T06:37:47.006Z,980.93
2022-11-02T06:38:46.993Z,980.95
2022-11-02T06:39:46.982Z,980.96
2022-11-02T06:40:46.968Z,980.98
2022-11-02T06:41:46.960Z,981.02
2022-11-02T06:43:03.178Z,981.04
2022-11-02T06:43:46.937Z,981.06
2022-11-02T06:44:46.925Z,981.10
2022-11-02T06:45:46.955Z,981.10
2022-11-02T06:46:46.902Z,981.11
2022-11-02T06:47:46.893Z,981.16
2022-11-02T06:48:46.882Z,981.18
2022-11-02T06:49:46.872Z,981.18
2022-11-02T06:50:46.875Z,981.21
2022-11-02T06:51:46.847Z,981.20
2022-11-02T06:52:46.836Z,981.18
2022-11-02T06:53:46.824Z,981.22
2022-11-02T06:54:46.812Z,981.21
2022-11-02T06:55:46.801Z,981.26
2022-11-02T06:56:46.788Z,981.29
2022-11-02T06:57:46.780Z,981.31
2022-11-02T06:58:46.767Z,981.28
2022-11-02T06:59:51.365Z,981.32
2022-11-02T07:00:46.902Z,981.32
2022-11-02T07:01:46.880Z,981.35
2022-11-02T07:02:46.722Z,981.34
2022-11-02T07:03:46.714Z,981.32
2022-11-02T07:04:46.702Z,981.34
2022-11-02T07:05:46.690Z,981.35
2022-11-02T07:06:46.698Z,981.34
2022-11-02T07:07:46.669Z,981.31
2022-11-02T07:08:46.655Z,981.33
2022-11-02T07:09:46.646Z,981.38
2022-11-02T07:10:46.633Z,981.41
2022-11-02T07:11:46.623Z,981.42
2022-11-02T07:12:46.611Z,981.40
2022-11-02T07:13:46.605Z,981.43
2022-11-02T07:14:46.588Z,981.43
2022-11-02T07:15:46.580Z,981.45
2022-11-02T07:16:46.589Z,981.48
2022-11-02T07:17:46.557Z,981.45
2022-11-02T07:18:46.550Z,981.46
2022-11-02T07:19:46.535Z,981.47
2022-11-02T07:20:46.524Z,981.50
2022-11-02T07:21:47.810Z,981.49
2022-11-02T07:22:46.523Z,981.53
2022-11-02T07:23:46.490Z,981.48
2022-11-02T07:24:46.477Z,981.50
2022-11-02T07:25:46.470Z,981.51
2022-11-02T07:26:46.456Z,981.55
2022-11-02T07:27:46.445Z,981.56
2022-11-02T07:28:46.435Z,981.54
2022-11-02T07:29:46.426Z,981.58
2022-11-02T07:30:46.412Z,981.57
2022-11-02T07:31:46.402Z,981.53
2022-11-02T07:32:46.391Z,981.58
2022-11-02T07:33:46.380Z,981.60
2022-11-02T07:34:46.369Z,981.62
2022-11-02T07:35:46.358Z,981.59
2022-11-02T07:36:46.348Z,981.65
2022-11-02T07:37:46.338Z,981.60
2022-11-02T07:38:46.342Z,981.58
2022-11-02T07:39:46.315Z,981.61
2022-11-02T07:40:46.303Z,981.60
2022-11-02T07:41:51.642Z,981.65
2022-11-02T07:42:46.281Z,981.62
2022-11-02T07:43:46.271Z,981.64
2022-11-02T07:44:46.269Z,981.64
2022-11-02T07:45:46.254Z,981.62
2022-11-02T07:46:46.238Z,981.67
2022-11-02T07:47:46.228Z,981.71
2022-11-02T07:48:46.215Z,981.69
2022-11-02T07:49:46.207Z,981.67
2022-11-02T07:50:46.197Z,981.67
2022-11-02T07:51:46.185Z,981.67
2022-11-02T07:52:46.173Z,981.66
2022-11-02T07:53:46.170Z,981.67
2022-11-02T07:54:46.177Z,981.72
2022-11-02T07:55:46.143Z,981.70
2022-11-02T07:56:46.131Z,981.73
2022-11-02T07:57:46.121Z,981.72
2022-11-02T07:58:46.107Z,981.71
2022-11-02T07:59:46.099Z,981.70
2022-11-02T08:00:46.086Z,981.78
2022-11-02T08:01:46.197Z,981.82
2022-11-02T08:02:46.141Z,981.83
2022-11-02T08:03:46.057Z,981.82
2022-11-02T08:04:46.045Z,981.84
2022-11-02T08:05:46.036Z,981.80
2022-11-02T08:06:46.022Z,981.81
2022-11-02T08:07:46.013Z,981.83
2022-11-02T08:08:46.000Z,981.81
2022-11-02T08:09:45.996Z,981.83
2022-11-02T08:10:45.999Z,981.84
2022-11-02T08:11:45.971Z,981.79
2022-11-02T08:12:45.959Z,981.84
2022-11-02T08:13:45.951Z,981.83
2022-11-02T08:14:45.938Z,981.88
2022-11-02T08:15:45.928Z,981.87
2022-11-02T08:16:45.917Z,981.86
2022-11-02T08:17:45.904Z,981.89
2022-11-02T08:18:45.898Z,981.91
2022-11-02T08:19:45.883Z,981.91
2022-11-02T08:20:45.890Z,981.90
2022-11-02T08:21:45.866Z,981.88
2022-11-02T08:22:45.850Z,981.90
2022-11-02T08:23:45.843Z,981.93
2022-11-02T08:24:45.829Z,981.90
2022-11-02T08:25:45.907Z,981.93
2022-11-02T08:26:46.731Z,981.91
2022-11-02T08:27:45.801Z,981.90
2022-11-02T08:28:45.786Z,981.90
2022-11-02T08:29:45.779Z,981.87
2022-11-02T08:30:45.765Z,981.89
2022-11-02T08:31:45.759Z,981.91
2022-11-02T08:32:45.746Z,981.88
2022-11-02T08:33:45.738Z,981.91
2022-11-02T08:34:45.725Z,981.91
2022-11-02T08:35:45.717Z,981.92
2022-11-02T08:36:45.702Z,981.91
2022-11-02T08:37:45.692Z,981.93
2022-11-02T08:38:45.682Z,981.97
2022-11-02T08:39:45.671Z,981.96
2022-11-02T08:40:45.666Z,981.97
2022-11-02T08:41:45.666Z,981.95
2022-11-02T08:42:45.659Z,981.91
2022-11-02T08:43:45.630Z,981.92
2022-11-02T08:44:45.625Z,981.96
2022-11-02T08:46:45.633Z,981.92
2022-11-02T08:47:45.592Z,981.96
2022-11-02T08:48:45.578Z,981.94
2022-11-02T08:49:45.569Z,981.93
2022-11-02T08:50:45.554Z,982.00
2022-11-02T08:51:45.545Z,981.98
2022-11-02T08:52:45.533Z,981.99
2022-11-02T08:53:50.405Z,981.96
2022-11-02T08:54:45.512Z,981.98
2022-11-02T08:55:45.503Z,981.98
2022-11-02T08:56:45.491Z,981.95
2022-11-02T08:57:45.482Z,981.97
2022-11-02T08:58:45.494Z,981.99
2022-11-02T08:59:45.462Z,982.00
2022-11-02T09:00:45.452Z,981.96
2022-11-02T09:01:45.588Z,981.95
2022-11-02T09:02:45.489Z,981.94
2022-11-02T09:03:45.421Z,981.97
2022-11-02T09:04:45.408Z,981.98
2022-11-02T09:05:45.405Z,981.96
2022-11-02T09:06:45.387Z,982.01
2022-11-02T09:07:45.378Z,981.97
2022-11-02T09:08:45.367Z,981.95
2022-11-02T09:09:45.359Z,982.00
2022-11-02T09:10:45.347Z,981.98
2022-11-02T09:11:45.353Z,981.95
2022-11-02T09:12:45.338Z,981.93
2022-11-02T09:13:45.404Z,981.91
2022-11-02T09:14:45.353Z,981.88
2022-11-02T09:15:45.306Z,981.87
2022-11-02T09:16:45.284Z,981.93
2022-11-02T09:17:45.307Z,981.93
2022-11-02T09:18:45.266Z,981.93
2022-11-02T09:19:45.255Z,981.92
2022-11-02T09:20:45.244Z,981.92
2022-11-02T09:21:45.238Z,981.90
2022-11-02T09:22:45.225Z,981.90
2022-11-02T09:23:45.216Z,981.93
2022-11-02T09:24:45.266Z,981.88
2022-11-02T09:25:45.197Z,981.89
2022-11-02T09:26:45.197Z,981.89
2022-11-02T09:27:45.176Z,981.93
2022-11-02T09:28:45.164Z,981.89
2022-11-02T09:29:45.158Z,981.92
2022-11-02T09:30:45.164Z,981.92
2022-11-02T09:31:45.139Z,981.90
2022-11-02T09:32:45.125Z,981.90
2022-11-02T09:33:45.118Z,981.89
2022-11-02T09:34:45.105Z,981.94
2022-11-02T09:35:45.111Z,981.90
2022-11-02T09:36:45.086Z,981.94
2022-11-02T09:37:50.050Z,981.94
2022-11-02T09:38:45.066Z,981.97
2022-11-02T09:39:45.058Z,982.00
2022-11-02T09:40:45.048Z,982.01
2022-11-02T09:41:45.038Z,982.04
2022-11-02T09:42:45.030Z,982.04
2022-11-02T09:43:45.017Z,982.02
2022-11-02T09:44:45.011Z,982.01
2022-11-02T09:45:45.000Z,982.03
2022-11-02T09:46:45.015Z,981.99
2022-11-02T09:48:44.972Z,982.06
2022-11-02T09:49:44.960Z,982.09
2022-11-02T09:50:44.953Z,982.07
2022-11-02T09:51:44.940Z,982.09
2022-11-02T09:52:44.934Z,982.10
2022-11-02T09:53:44.921Z,982.13
2022-11-02T09:54:44.914Z,982.09
2022-11-02T09:55:44.903Z,982.11
2022-11-02T09:56:44.904Z,982.13
2022-11-02T09:57:44.882Z,982.08
2022-11-02T09:58:44.877Z,982.11
2022-11-02T09:59:44.863Z,982.08
2022-11-02T10:00:44.860Z,982.10
2022-11-02T10:01:45.021Z,982.12
2022-11-02T10:02:44.893Z,982.07
2022-11-02T10:03:44.825Z,982.11
2022-11-02T10:04:44.818Z,982.07
2022-11-02T10:05:44.807Z,982.03
2022-11-02T10:06:44.797Z,982.08
2022-11-02T10:07:44.785Z,982.10
2022-11-02T10:08:44.779Z,982.16
2022-11-02T10:09:44.767Z,982.10
2022-11-02T10:10:44.759Z,982.11
2022-11-02T10:11:44.747Z,982.12
2022-11-02T10:12:44.740Z,982.16
2022-11-02T10:13:44.729Z,982.16
2022-11-02T10:14:44.720Z,982.11
2022-11-02T10:15:44.707Z,982.11
2022-11-02T10:16:44.701Z,982.10
2022-11-02T10:17:44.703Z,982.07
2022-11-02T10:18:44.712Z,982.03
2022-11-02T10:19:44.681Z,982.04
2022-11-02T10:20:44.666Z,982.02
2022-11-02T10:21:44.651Z,981.98
2022-11-02T10:22:44.646Z,981.98
2022-11-02T10:23:44.631Z,982.00
2022-11-02T10:24:44.642Z,982.00
2022-11-02T10:25:44.611Z,982.01
2022-11-02T10:26:44.605Z,982.00
2022-11-02T10:27:44.668Z,982.02
2022-11-02T10:28:44.586Z,981.98
2022-11-02T10:29:44.579Z,981.96
2022-11-02T10:30:44.566Z,981.96
2022-11-02T10:31:44.554Z,981.96
2022-11-02T10:32:44.576Z,981.97
2022-11-02T10:33:44.536Z,981.95
2022-11-02T10:34:50.485Z,981.93
2022-11-02T10:36:12.074Z,981.86
2022-11-02T10:36:44.507Z,981.91
2022-11-02T10:37:44.496Z,981.87
2022-11-02T10:38:44.490Z,981.87
2022-11-02T10:39:44.476Z,981.86
2022-11-02T10:40:44.521Z,981.82
2022-11-02T10:41:44.458Z,981.85
2022-11-02T10:42:44.451Z,981.84
2022-11-02T10:43:48.219Z,981.79
2022-11-02T10:44:44.431Z,981.79
2022-11-02T10:45:44.420Z,981.78
2022-11-02T10:46:44.414Z,981.74
2022-11-02T10:47:44.401Z,981.73
2022-11-02T10:48:44.393Z,981.68
2022-11-02T10:49:44.383Z,981.70
2022-11-02T10:50:44.392Z,981.67
2022-11-02T10:51:44.362Z,981.63
2022-11-02T10:52:44.355Z,981.63
2022-11-02T10:53:44.747Z,981.61
2022-11-02T10:54:44.336Z,981.55
2022-11-02T10:55:44.322Z,981.58
2022-11-02T10:56:44.316Z,981.59
2022-11-02T10:57:44.305Z,981.50
2022-11-02T10:58:44.298Z,981.49
2022-11-02T10:59:44.284Z,981.43
2022-11-02T11:00:44.347Z,981.43
2022-11-02T11:01:44.302Z,981.42
2022-11-02T11:02:44.261Z,981.43
2022-11-02T11:03:44.248Z,981.38
2022-11-02T11:04:44.242Z,981.38
2022-11-02T11:05:44.232Z,981.36
2022-11-02T11:07:44.235Z,981.33
2022-11-02T11:08:44.205Z,981.34
2022-11-02T11:09:46.672Z,981.32
2022-11-02T11:10:44.188Z,981.32
2022-11-02T11:11:44.177Z,981.35
2022-11-02T11:12:44.166Z,981.30
2022-11-02T11:16:44.347Z,981.23
2022-11-02T11:19:44.106Z,981.26
2022-11-02T11:20:44.110Z,981.25
2022-11-02T11:21:44.151Z,981.24
2022-11-02T11:22:44.076Z,981.21
2022-11-02T11:23:44.095Z,981.16
2022-11-02T11:24:44.124Z,981.17
2022-11-02T11:25:44.050Z,981.15
2022-11-02T11:26:44.041Z,981.14
2022-11-02T11:27:44.032Z,981.13
2022-11-02T11:28:44.022Z,981.10
2022-11-02T11:29:44.016Z,981.14
2022-11-02T11:30:59.616Z,981.14
2022-11-02T11:31:43.995Z,981.11
2022-11-02T11:32:43.985Z,981.11
2022-11-02T11:33:43.978Z,981.13
2022-11-02T11:34:43.969Z,981.08
2022-11-02T11:35:43.962Z,981.11
2022-11-02T11:36:43.950Z,981.09
2022-11-02T11:37:43.941Z,981.10
2022-11-02T11:38:43.932Z,981.12
2022-11-02T11:39:43.953Z,981.08
2022-11-02T11:40:43.914Z,981.13
2022-11-02T11:41:43.908Z,981.13
2022-11-02T11:42:43.911Z,981.11
2022-11-02T11:43:43.888Z,981.11
2022-11-02T11:44:43.879Z,981.09
2022-11-02T11:45:43.872Z,981.10
2022-11-02T11:46:43.865Z,981.12
2022-11-02T11:47:43.854Z,981.07
2022-11-02T11:48:43.841Z,981.08
2022-11-02T11:50:43.827Z,981.11
2022-11-02T11:51:43.817Z,981.09
2022-11-02T11:52:43.808Z,981.12
2022-11-02T11:53:43.800Z,981.09
2022-11-02T11:54:43.789Z,981.07
2022-11-02T11:55:43.821Z,981.04
2022-11-02T11:56:43.774Z,981.04
2022-11-02T11:57:43.768Z,981.02
2022-11-02T11:58:48.024Z,981.01
2022-11-02T11:59:43.750Z,981.02
2022-11-02T12:00:43.737Z,981.00
2022-11-02T12:01:43.888Z,980.97
2022-11-02T12:02:44.807Z,980.94
2022-11-02T12:03:43.713Z,980.95
2022-11-02T12:04:43.703Z,980.98
2022-11-02T12:05:43.697Z,980.94
2022-11-02T12:06:43.686Z,980.94
2022-11-02T12:07:43.678Z,980.96
2022-11-02T12:08:43.669Z,980.91
2022-11-02T12:09:43.662Z,980.91
2022-11-02T12:10:43.651Z,980.89
2022-11-02T12:11:43.668Z,980.89
2022-11-02T12:12:43.636Z,980.93
2022-11-02T12:13:43.632Z,980.94
2022-11-02T12:14:43.617Z,980.93
2022-11-02T12:15:43.614Z,980.91
2022-11-02T12:16:43.612Z,980.92
2022-11-02T12:17:43.621Z,980.88
2022-11-02T12:18:43.583Z,980.83
2022-11-02T12:19:43.576Z,980.85
2022-11-02T12:20:43.566Z,980.80
2022-11-02T12:21:43.562Z,980.74
2022-11-02T12:22:43.550Z,980.71
2022-11-02T12:23:43.545Z,980.74
2022-11-02T12:24:43.532Z,980.73
2022-11-02T12:25:43.525Z,980.73
2022-11-02T12:26:43.515Z,980.76
2022-11-02T12:27:43.545Z,980.75
2022-11-02T12:28:43.498Z,980.75
2022-11-02T12:29:43.491Z,980.68
2022-11-02T12:30:43.481Z,980.66
2022-11-02T12:31:43.475Z,980.62
2022-11-02T12:32:43.465Z,980.61
2022-11-02T12:33:43.458Z,980.59
2022-11-02T12:34:46.570Z,980.54
2022-11-02T12:35:43.439Z,980.53
2022-11-02T12:37:11.205Z,980.51
2022-11-02T12:37:43.425Z,980.53
2022-11-02T12:38:43.414Z,980.49